SBFZSBTE

Guest
Details From SBFZ - Pinto Martins
To SBTE - Senador Petronio Portella
Flight Number -
Tags Generated
Created
Modified
Stats Distance 268 nm / 496 km
Max Altitude 0 ft / 0 m
Waypoints 3
Social Downloads 1
Likes 0
Share VATSIM

Download

Looking for another format? Having issues loading an existing format? Contact us
Advertisement - Login to hide

Notes

Generated

Route

SBFZ TRS SBTE

ID Type Via Altitude Latitude Longitude Leg Dist Tot Dist Heading (true) Name
O SBFZ APT - 0 ft / 0 m -3.77334˚ -38.54365˚ - 0 nm - -
TRS NDB - 0 ft / 0 m -5.06733˚ -42.81950˚ 267 nm 267 nm 253° / 253° TERESINA NDB
O SBTE APT - 0 ft / 0 m -5.06982˚ -42.82246˚ 0 nm 267 nm 230° / 230° -

Altitude Profile

Advertisement - Login to hide

Weather


0- 5 10 15 20 25 30 35+ Temperature / ° C

Clouds and Precipitation
Forecast for 2017-12-14 06:00 UTC. Updated 2 hours ago

Ground ~20,000 ft ~40,000 ft Winds

SBFZ

Details ICAO SBFZ (FOR)
Name Pinto Martins
Region Brazil
Timezone America/Fortaleza (UTC-3.0)
Stats Elevation 82 ft / 25 m (AMSL)
Location -3.776283° -38.532556°
Runways 1
Magnetic Variation 21.126° W

METAR

SBFZ 140200Z 07008KT 9999 FEW022 27/22 Q1014

Decode

TAF

TAF SBFZ 132200Z 1400/1424 08009KT 9999 SCT020 TN27/1408Z TX31/1414Z BECMG 1411/1413 08014KT BECMG 1419/1421 07009KT RMK PEU

Decode

Departure Runways

ID Width Length Bearing (true) Bearing (mag) Surface Threshold Offset Overrun Length
13 148 ft / 45 m 8,360 ft / 2,548 m 104.88° 126.01° Asphalt 0 ft / 0 m 195 ft / 59 m
31 148 ft / 45 m 8,360 ft / 2,548 m 284.88° 306.01° Asphalt 0 ft / 0 m 125 ft / 38 m

SBTE

Details ICAO SBTE (THE)
Name Senador Petronio Portella
Region Brazil
Timezone America/Fortaleza (UTC-3.0)
Stats Elevation 219 ft / 67 m (AMSL)
Location -5.059940° -42.823478°
Runways 1
Magnetic Variation 21.543° W

METAR

SBTE 140200Z 30004KT 9999 BKN030 28/23 Q1012

Decode

TAF

TAF TAF SBTE 132200Z 1400/1412 34005KT 9999 CAVOK TX31/1400Z TN27/1407Z BECMG 1407/1409 8000 SCT015 PROB30 1410/1412 BKN014 RMK PEU

Decode

Destination Runways

ID Width Length Bearing (true) Bearing (mag) Surface Threshold Offset Overrun Length
02 148 ft / 45 m 7,246 ft / 2,209 m 354.11° 15.65° Asphalt 0 ft / 0 m 190 ft / 58 m
20 148 ft / 45 m 7,246 ft / 2,209 m 174.12° 195.66° Asphalt 0 ft / 0 m 190 ft / 58 m

Popular Alternatives